松山國際航空站 - 塔臺

METAR RCSS 190000Z VRB02KT 9999 FEW030 SCT100 18/14 Q1022 NOSIG RMK A3018(D)=

站台狀態:Online
最後更新:2019-01-19 08:00:02